Aeroporto :
LOGIN :

Iscrizione | Disclaimer

   EN    FR    IT 

 










Sommario :    VFR   VFR Marginale   IFR   IFR Intensivo   IFR Molto Intensivo
Visibilità : 
Base nubi : 
>= 8 km
>= 3000ft
5 / 8 km
1000 / 3000 ft
1500m / 5 km
500 / 1000 ft
800 / 1500m
200 / 500 ft
< 800m
< 200 ft
Simboli :   Temporali  Nebbia  Neve Forte  Precipitazioni Forti  Vento > 20 kt
SIGMETs :   Varie  Temporali  Ghiacco  Turbolenza  Onda orograficha  Ceneri Vulcaniche






- Altitudine del aeroporto : 1036 ft
- Codice IATA : ERF


EDDE - Erfurt

ULTIMO METAR :
  • 200350Z 26004KT 9999 BKN019 02/01 Q1018

METARs OBSOLETI :
  • 200320Z 25004KT 9999 SCT022 SCT040 01/00 Q1018
  • 200250Z 27007KT 9999 FEW024 BKN038 01/01 Q1018
  • 200220Z 23005KT 9999 FEW025 BKN037 02/01 Q1018
  • 200150Z 21003KT 9999 BKN040 01/00 Q1018
  • 200120Z 24003KT 9999 BKN043 02/00 Q1018

TAF TAF EDDE
Valido dal 20 a 00 ore il 21 a 00 ore UTC


192300Z 2000/2024 VRB03KT 9000 BKN035
TEMPO 2005/2011 1300 BR
PROB30
TEMPO 2005/2011 BKN004
BECMG 2009/2012 BKN012
PROB40
TEMPO 2011/2015 2500 BR
BECMG 2014/2016 SCT004 BKN007
PROB40
TEMPO 2015/2019 1400 -DZRA
BECMG 2017/2019 4000 BR BKN004
TEMPO 2020/2021 0400 FG



MetMap, La meteo Aeronautica in un colpo d'occhio ! - Copyright ORBIFLY Dicembre 2007 - Disclaimer

ORBIFLY MET'MAP TEAM :

Programmazione e sviluppo : Alexandra Zaïnal
Concezione e sviluppo : Baudouin d'Aumeries
Co-Programmazione e sviluppo : Marc-Olivier Méhu
Supporto tecnico e logistico : Manuel Goepfert
Aiuto per la traduzione : Arnaldo La Scala

Contatto : metmap@orbifly.com




FONTI E CREDITI :

   NOAA